Weather at Horace Williams Airport [CLOSED]

Public forecast

Using degrees Fahrenheit for public forecast. Weather courtesy of forecast.io.

Closest aviation weather report (METAR) to Horace Williams Airport

Closest report is Raleigh Durham International Airport, 14.0 nm (25.9 km) ESE.

2024/06/25 18:51 (retrieved 33 minutes ago)

KRDU 251851Z 20006KT 10SM SCT070 BKN250 36/16 A2996 RMK AO2 SLP139 T03610156

Closest aviation forecast (TAF) to Horace Williams Airport

Closest forecast is Raleigh Durham International Airport, 14.0 nm (25.9 km) ESE.

2024/06/25 18:22 (retrieved 1 hour ago)

TAF KRDU 251720Z 2518/2618 19006KT P6SM FEW070 SCT090 TEMPO 2609/2613 BKN009